Time;durP1;ratioP1;P1;durP2;ratioP2;P2;SDS_P1;SDS_P2;PMS_P1;PMS_P2;Temp;Humidity;BMP_temperature;BMP_pressure;BME280_temperature;BME280_humidity;BME280_pressure;Samples;Min_cycle;Max_cycle;Signal;HPM_P1;HPM_P2
2024/01/12 00:02:25;;;;;;;54.10;26.77;;;1.60;99.90;;;;;;5080476;28;20616;-60
2024/01/12 00:04:53;;;;;;;58.47;27.90;;;1.60;99.90;;;;;;5080242;28;20215;-60
2024/01/12 00:07:22;;;;;;;56.77;27.87;;;1.60;99.90;;;;;;5080227;28;20234;-61
2024/01/12 00:09:50;;;;;;;57.93;27.63;;;1.60;99.90;;;;;;5081884;28;20266;-60
2024/01/12 00:12:18;;;;;;;59.10;28.23;;;1.60;99.90;;;;;;5080894;28;20228;-60
2024/01/12 00:14:46;;;;;;;60.70;27.63;;;1.60;99.90;;;;;;5082723;28;20218;-61
2024/01/12 00:17:18;;;;;;;63.07;27.83;;;1.60;99.90;;;;;;5083974;28;20590;-60
2024/01/12 00:19:46;;;;;;;51.53;26.23;;;1.60;99.90;;;;;;5084142;28;20736;-61
2024/01/12 00:22:15;;;;;;;60.63;27.77;;;1.60;99.90;;;;;;5079815;28;20580;-60
2024/01/12 00:24:43;;;;;;;62.07;28.57;;;1.70;99.90;;;;;;5086387;28;20257;-60
2024/01/12 00:27:11;;;;;;;58.73;26.53;;;1.70;99.90;;;;;;5085610;28;20219;-61
2024/01/12 00:29:40;;;;;;;54.20;26.33;;;1.70;99.90;;;;;;5082470;28;20230;-60
2024/01/12 00:32:08;;;;;;;66.57;26.83;;;1.70;99.90;;;;;;5082806;28;20264;-60
2024/01/12 00:34:38;;;;;;;56.17;26.70;;;1.70;99.90;;;;;;5086993;28;20635;-61
2024/01/12 00:37:09;;;;;;;63.17;26.30;;;1.70;99.90;;;;;;5082063;28;20351;-60
2024/01/12 00:39:37;;;;;;;55.80;27.13;;;1.80;99.90;;;;;;5084079;28;20215;-60
2024/01/12 00:42:06;;;;;;;59.03;26.73;;;1.80;99.90;;;;;;5085976;28;20215;-60
2024/01/12 00:44:34;;;;;;;61.87;27.73;;;1.80;99.90;;;;;;5083979;28;20669;-60
2024/01/12 00:47:03;;;;;;;55.40;25.27;;;1.80;99.90;;;;;;5083055;28;20195;-60
2024/01/12 00:49:31;;;;;;;57.60;26.80;;;1.80;99.90;;;;;;5081284;28;20200;-60
2024/01/12 00:52:01;;;;;;;55.50;26.90;;;1.80;99.90;;;;;;5083205;28;20230;-61
2024/01/12 00:54:29;;;;;;;55.10;25.50;;;1.80;99.90;;;;;;5077213;27;20268;-60
2024/01/12 00:56:58;;;;;;;55.60;26.10;;;1.90;99.90;;;;;;5082632;28;20303;-60
2024/01/12 00:59:26;;;;;;;52.97;25.33;;;1.90;99.90;;;;;;5082715;28;20709;-60
2024/01/12 01:01:57;;;;;;;58.63;26.03;;;1.90;99.90;;;;;;5084524;28;20195;-60
2024/01/12 01:04:26;;;;;;;52.60;25.13;;;1.90;99.90;;;;;;4958778;28;20230;-61
2024/01/12 01:06:55;;;;;;;56.67;24.70;;;1.90;99.90;;;;;;4978202;28;20233;-61
2024/01/12 01:09:25;;;;;;;54.43;25.33;;;1.90;99.90;;;;;;5036651;28;20693;-60
2024/01/12 01:11:53;;;;;;;61.00;25.73;;;1.90;99.90;;;;;;5082763;28;20233;-60
2024/01/12 01:14:24;;;;;;;60.87;26.37;;;1.90;99.90;;;;;;5080949;28;20231;-61
2024/01/12 01:16:53;;;;;;;57.07;25.40;;;1.90;99.90;;;;;;5082986;28;20196;-61
2024/01/12 01:19:22;;;;;;;54.23;24.83;;;2.00;99.90;;;;;;5086883;28;20264;-60
2024/01/12 01:21:51;;;;;;;57.60;25.70;;;2.00;99.90;;;;;;5087192;28;20689;-60
2024/01/12 01:24:19;;;;;;;53.80;25.40;;;2.00;99.90;;;;;;5086371;28;20207;-60
2024/01/12 01:26:48;;;;;;;60.63;25.93;;;2.00;99.90;;;;;;5086790;28;20215;-60
2024/01/12 01:29:17;;;;;;;58.57;25.37;;;2.00;99.90;;;;;;5085852;28;20211;-60
2024/01/12 01:31:45;;;;;;;63.93;25.33;;;2.00;99.90;;;;;;5085390;28;20274;-60
2024/01/12 01:34:13;;;;;;;58.40;23.70;;;2.00;99.90;;;;;;5088974;28;20217;-61
2024/01/12 01:36:42;;;;;;;53.10;23.47;;;2.10;99.90;;;;;;5085738;28;20246;-60
2024/01/12 01:39:10;;;;;;;57.17;24.77;;;2.10;99.90;;;;;;5086675;28;20777;-61
2024/01/12 01:41:41;;;;;;;54.93;24.13;;;2.10;99.90;;;;;;5084402;28;20683;-61
2024/01/12 01:44:10;;;;;;;49.77;22.13;;;2.10;99.90;;;;;;5087085;28;20616;-61
2024/01/12 01:46:39;;;;;;;58.50;23.90;;;2.20;99.90;;;;;;5089289;28;20198;-60
2024/01/12 01:49:07;;;;;;;60.27;23.73;;;2.20;99.90;;;;;;5086988;28;20227;-60
2024/01/12 01:51:35;;;;;;;65.43;24.13;;;2.20;99.90;;;;;;5083273;28;20318;-60
2024/01/12 01:54:04;;;;;;;55.87;22.23;;;2.20;99.90;;;;;;5079377;28;20222;-60
2024/01/12 01:56:33;;;;;;;51.17;22.27;;;2.20;99.90;;;;;;5086929;28;20224;-60
2024/01/12 01:59:01;;;;;;;60.03;22.37;;;2.20;99.90;;;;;;5085480;28;20604;-60
2024/01/12 02:01:31;;;;;;;58.50;22.43;;;2.30;99.90;;;;;;5083978;28;20293;-60
2024/01/12 02:04:02;;;;;;;54.07;21.43;;;2.30;99.90;;;;;;5082767;28;20215;-60
2024/01/12 02:06:31;;;;;;;56.47;21.93;;;2.40;99.90;;;;;;5083068;28;21231;-60
2024/01/12 02:09:00;;;;;;;52.30;22.03;;;2.40;99.90;;;;;;5080307;28;20589;-60
2024/01/12 02:11:29;;;;;;;58.43;21.73;;;2.40;99.90;;;;;;5085904;28;20674;-61
2024/01/12 02:13:57;;;;;;;55.93;22.20;;;2.40;99.90;;;;;;5084288;28;20231;-60
2024/01/12 02:16:26;;;;;;;53.40;20.57;;;2.40;99.90;;;;;;5086407;28;20258;-60
2024/01/12 02:18:55;;;;;;;53.00;22.10;;;2.40;99.90;;;;;;5083072;28;20571;-60
2024/01/12 02:21:25;;;;;;;49.63;20.63;;;2.50;99.90;;;;;;5086864;27;20749;-61
2024/01/12 02:23:53;;;;;;;58.37;22.40;;;2.50;99.90;;;;;;5086536;28;20222;-61
2024/01/12 02:26:22;;;;;;;48.30;20.60;;;2.40;99.90;;;;;;5086202;28;20254;-60
2024/01/12 02:28:50;;;;;;;45.70;19.80;;;2.40;99.90;;;;;;5086765;28;20214;-60
2024/01/12 02:31:18;;;;;;;46.50;20.77;;;2.40;99.90;;;;;;5084636;28;20246;-61
2024/01/12 02:33:49;;;;;;;49.53;19.70;;;2.40;99.90;;;;;;5082760;28;20220;-60
2024/01/12 02:36:18;;;;;;;52.93;19.70;;;2.40;99.90;;;;;;5086874;28;20332;-61
2024/01/12 02:38:50;;;;;;;47.33;20.53;;;2.40;99.90;;;;;;5086956;28;20219;-61
2024/01/12 02:41:19;;;;;;;48.83;20.17;;;2.50;99.90;;;;;;5081317;28;20234;-60
2024/01/12 02:43:47;;;;;;;44.13;19.50;;;2.50;99.90;;;;;;5081267;28;20195;-60
2024/01/12 02:46:16;;;;;;;47.13;18.67;;;2.50;99.90;;;;;;5080420;28;20648;-60
2024/01/12 02:48:44;;;;;;;41.73;19.23;;;2.50;99.90;;;;;;5085928;28;20301;-60
2024/01/12 02:51:12;;;;;;;47.10;20.00;;;2.50;99.90;;;;;;5083737;28;20235;-60
2024/01/12 02:53:40;;;;;;;47.43;18.43;;;2.50;99.90;;;;;;5082924;28;20216;-60
2024/01/12 02:56:11;;;;;;;48.33;18.90;;;2.50;99.90;;;;;;5084992;28;20183;-61
2024/01/12 02:58:40;;;;;;;47.27;18.13;;;2.50;99.90;;;;;;5084674;28;20534;-60
2024/01/12 03:01:07;;;;;;;47.53;19.77;;;2.50;99.90;;;;;;5084815;28;20247;-60
2024/01/12 03:03:36;;;;;;;42.40;17.83;;;2.50;99.90;;;;;;5086543;28;20737;-61
2024/01/12 03:06:05;;;;;;;46.27;18.63;;;2.50;99.90;;;;;;5079796;28;20234;-60
2024/01/12 03:08:33;;;;;;;54.97;19.23;;;2.50;99.90;;;;;;5082304;27;20246;-60
2024/01/12 03:11:01;;;;;;;55.23;20.10;;;2.50;99.90;;;;;;5079547;28;20199;-60
2024/01/12 03:13:32;;;;;;;57.93;19.57;;;2.50;99.90;;;;;;5084326;28;20210;-60
2024/01/12 03:16:00;;;;;;;47.53;19.37;;;2.50;99.90;;;;;;5087468;28;20222;-60
2024/01/12 03:18:28;;;;;;;53.43;19.83;;;2.50;99.90;;;;;;5083047;28;20247;-60
2024/01/12 03:20:57;;;;;;;51.90;20.43;;;2.50;99.90;;;;;;5086642;28;20363;-61
2024/01/12 03:23:26;;;;;;;47.17;19.77;;;2.50;99.90;;;;;;5084704;28;20226;-61
2024/01/12 03:25:54;;;;;;;50.40;19.97;;;2.50;99.90;;;;;;5081513;28;20528;-61
2024/01/12 03:28:23;;;;;;;50.17;17.97;;;2.50;99.90;;;;;;5080390;28;20234;-61
2024/01/12 03:30:52;;;;;;;32.17;16.03;;;2.50;99.90;;;;;;5086777;28;20301;-60
2024/01/12 03:33:20;;;;;;;42.57;17.93;;;2.40;99.90;;;;;;5084348;27;20222;-61
2024/01/12 03:35:49;;;;;;;44.03;17.83;;;2.40;99.90;;;;;;5082499;28;20238;-61
2024/01/12 03:38:17;;;;;;;46.23;18.30;;;2.40;99.90;;;;;;5081952;28;20195;-61
2024/01/12 03:40:45;;;;;;;49.10;19.33;;;2.40;99.90;;;;;;5084162;28;20217;-61
2024/01/12 03:43:14;;;;;;;52.37;19.70;;;2.50;99.90;;;;;;5087984;28;20220;-60
2024/01/12 03:45:42;;;;;;;44.87;18.43;;;2.50;99.90;;;;;;5084900;28;20227;-60
2024/01/12 03:48:12;;;;;;;50.43;19.70;;;2.50;99.90;;;;;;5080292;28;20223;-60
2024/01/12 03:50:41;;;;;;;46.03;20.10;;;2.50;99.90;;;;;;5082739;28;20279;-61
2024/01/12 03:53:09;;;;;;;53.30;19.67;;;2.50;99.90;;;;;;5084690;28;20519;-60
2024/01/12 03:55:37;;;;;;;47.43;18.40;;;2.50;99.90;;;;;;5076466;28;20191;-60
2024/01/12 03:58:06;;;;;;;42.37;18.37;;;2.50;99.90;;;;;;5082600;28;20213;-60
2024/01/12 04:00:34;;;;;;;43.80;18.03;;;2.50;99.90;;;;;;5084323;28;20254;-61
2024/01/12 04:03:03;;;;;;;54.63;19.87;;;2.50;99.90;;;;;;5084716;28;20234;-61
2024/01/12 04:05:33;;;;;;;47.17;18.73;;;2.50;99.90;;;;;;5080311;28;20252;-61
2024/01/12 04:08:02;;;;;;;46.00;19.93;;;2.50;99.90;;;;;;5080430;28;20215;-60
2024/01/12 04:10:30;;;;;;;45.77;18.43;;;2.50;99.90;;;;;;5081703;28;20184;-60
2024/01/12 04:12:58;;;;;;;48.00;18.10;;;2.50;99.90;;;;;;5083436;28;20945;-61
2024/01/12 04:15:27;;;;;;;47.63;20.50;;;2.50;99.90;;;;;;5084444;28;20298;-60
2024/01/12 04:17:55;;;;;;;52.03;19.03;;;2.50;99.90;;;;;;5085290;28;20757;-60
2024/01/12 04:20:23;;;;;;;47.73;19.70;;;2.50;99.90;;;;;;5084995;28;20236;-60
2024/01/12 04:22:54;;;;;;;45.07;18.63;;;2.50;99.90;;;;;;5082139;28;20685;-60
2024/01/12 04:25:22;;;;;;;53.00;18.90;;;2.50;99.90;;;;;;5082916;28;20219;-61
2024/01/12 04:27:50;;;;;;;44.13;17.80;;;2.50;99.90;;;;;;5082968;28;20223;-60
2024/01/12 04:30:18;;;;;;;38.80;18.00;;;2.50;99.90;;;;;;5080492;28;20309;-60
2024/01/12 04:32:47;;;;;;;49.43;20.13;;;2.50;99.90;;;;;;5085322;28;20219;-60
2024/01/12 04:35:15;;;;;;;50.27;20.87;;;2.40;99.90;;;;;;5083556;28;20705;-60
2024/01/12 04:37:43;;;;;;;56.40;21.77;;;2.40;99.90;;;;;;5084943;28;20286;-60
2024/01/12 04:40:13;;;;;;;51.40;21.17;;;2.40;99.90;;;;;;5085536;28;20222;-60
2024/01/12 04:42:41;;;;;;;52.77;21.40;;;2.40;99.90;;;;;;5081186;28;20234;-60
2024/01/12 04:45:10;;;;;;;49.03;20.33;;;2.40;99.90;;;;;;5079695;28;20619;-61
2024/01/12 04:47:38;;;;;;;49.47;19.50;;;2.40;99.90;;;;;;5080377;28;20743;-61
2024/01/12 04:50:07;;;;;;;55.13;19.10;;;2.40;99.90;;;;;;5080135;28;20191;-61
2024/01/12 04:52:35;;;;;;;53.87;19.57;;;2.50;99.90;;;;;;5087039;28;20664;-60
2024/01/12 04:55:04;;;;;;;52.13;18.43;;;2.50;99.90;;;;;;5090125;28;20732;-60
2024/01/12 04:57:34;;;;;;;53.27;20.40;;;2.50;99.90;;;;;;5088508;28;20550;-61
2024/01/12 05:00:02;;;;;;;45.77;18.53;;;2.50;99.90;;;;;;5089116;28;20291;-60
2024/01/12 05:02:31;;;;;;;48.87;20.10;;;2.50;99.90;;;;;;5085452;28;20708;-61
2024/01/12 05:04:59;;;;;;;49.10;19.27;;;2.40;99.90;;;;;;5084412;28;20195;-58
2024/01/12 05:07:27;;;;;;;42.87;18.60;;;2.40;99.90;;;;;;5085549;28;20230;-61
2024/01/12 05:09:55;;;;;;;50.60;18.70;;;2.50;99.90;;;;;;5082483;28;20558;-61
2024/01/12 05:12:24;;;;;;;50.80;19.23;;;2.50;99.90;;;;;;5084593;28;20287;-61
2024/01/12 05:14:54;;;;;;;49.60;19.23;;;2.50;99.90;;;;;;5088527;28;20307;-60
2024/01/12 05:17:24;;;;;;;42.17;17.50;;;2.50;99.90;;;;;;5087340;28;20250;-61
2024/01/12 05:19:52;;;;;;;48.17;19.03;;;2.40;99.90;;;;;;5086645;28;20680;-60
2024/01/12 05:22:20;;;;;;;40.40;18.30;;;2.40;99.90;;;;;;5085689;28;20215;-60
2024/01/12 05:24:48;;;;;;;47.27;19.07;;;2.40;99.90;;;;;;5089778;28;20238;-61
2024/01/12 05:27:16;;;;;;;50.13;18.67;;;2.50;99.90;;;;;;5087368;28;20223;-61
2024/01/12 05:29:45;;;;;;;42.63;18.60;;;2.50;99.90;;;;;;5088258;28;20705;-60
2024/01/12 05:32:16;;;;;;;49.83;19.57;;;2.50;99.90;;;;;;5084486;28;20274;-61
2024/01/12 05:34:44;;;;;;;41.77;19.30;;;2.40;99.90;;;;;;5092917;28;20275;-61
2024/01/12 05:37:12;;;;;;;44.47;17.67;;;2.40;99.90;;;;;;5087831;28;20334;-60
2024/01/12 05:39:40;;;;;;;48.67;18.57;;;2.40;99.90;;;;;;5088303;28;20222;-60
2024/01/12 05:42:09;;;;;;;37.93;17.57;;;2.40;99.90;;;;;;5086944;28;20219;-61
2024/01/12 05:44:37;;;;;;;40.50;18.93;;;2.40;99.90;;;;;;5087708;28;20277;-61
2024/01/12 05:47:06;;;;;;;42.07;18.03;;;2.40;99.90;;;;;;5085113;28;20208;-60
2024/01/12 05:49:37;;;;;;;41.20;19.70;;;2.40;99.90;;;;;;5086445;28;20223;-60
2024/01/12 05:52:06;;;;;;;43.50;18.63;;;2.40;99.90;;;;;;5083447;28;20231;-60
2024/01/12 05:54:34;;;;;;;37.43;18.20;;;2.40;99.90;;;;;;5082094;28;20231;-60
2024/01/12 05:57:05;;;;;;;49.40;21.60;;;2.40;99.90;;;;;;5086063;28;20692;-61
2024/01/12 05:59:33;;;;;;;43.57;19.40;;;2.40;99.90;;;;;;5086250;27;20266;-60
2024/01/12 06:02:03;;;;;;;47.47;18.73;;;2.40;99.90;;;;;;5083312;28;20260;-61
2024/01/12 06:04:35;;;;;;;36.33;18.03;;;2.40;99.90;;;;;;5084605;28;20218;-60
2024/01/12 06:07:04;;;;;;;44.37;17.90;;;2.40;99.90;;;;;;5081137;27;20713;-60
2024/01/12 06:09:32;;;;;;;41.63;18.70;;;2.50;99.90;;;;;;5083751;28;20235;-60
2024/01/12 06:12:00;;;;;;;38.77;18.30;;;2.50;99.90;;;;;;5083985;28;20224;-61
2024/01/12 06:14:29;;;;;;;42.50;18.37;;;2.40;99.90;;;;;;5085834;28;20318;-60
2024/01/12 06:16:58;;;;;;;39.20;17.70;;;2.40;99.90;;;;;;5087041;28;20188;-61
2024/01/12 06:19:26;;;;;;;41.87;19.63;;;2.40;99.90;;;;;;5083536;28;20575;-60
2024/01/12 06:21:56;;;;;;;40.30;19.23;;;2.50;99.90;;;;;;5084711;28;20285;-60
2024/01/12 06:24:24;;;;;;;40.60;20.07;;;2.40;99.90;;;;;;5087032;28;20219;-60
2024/01/12 06:26:52;;;;;;;45.13;20.37;;;2.40;99.90;;;;;;5082874;28;20215;-61
2024/01/12 06:29:21;;;;;;;38.80;17.90;;;2.50;99.90;;;;;;5086612;28;20669;-60
2024/01/12 06:31:49;;;;;;;38.93;20.57;;;2.50;99.90;;;;;;5083804;28;20195;-60
2024/01/12 06:34:18;;;;;;;39.90;18.73;;;2.50;99.90;;;;;;5086811;28;20242;-61
2024/01/12 06:36:46;;;;;;;35.27;19.77;;;2.50;99.90;;;;;;5085473;28;20227;-60
2024/01/12 06:39:16;;;;;;;37.00;20.13;;;2.50;99.90;;;;;;5082597;28;20218;-61
2024/01/12 06:41:46;;;;;;;47.40;21.13;;;2.50;99.90;;;;;;5085489;28;20219;-60
2024/01/12 06:44:15;;;;;;;51.30;21.33;;;2.50;99.90;;;;;;5085532;28;20198;-61
2024/01/12 06:46:44;;;;;;;43.23;21.40;;;2.50;99.90;;;;;;5085531;28;20557;-61
2024/01/12 06:49:13;;;;;;;51.60;22.67;;;2.50;99.90;;;;;;5084298;28;20222;-61
2024/01/12 06:51:41;;;;;;;41.10;19.90;;;2.50;99.90;;;;;;5082594;28;20284;-60
2024/01/12 06:54:10;;;;;;;45.33;22.27;;;2.60;99.90;;;;;;5086164;27;20211;-61
2024/01/12 06:56:40;;;;;;;45.13;21.37;;;2.60;99.90;;;;;;5087746;28;20215;-61
2024/01/12 06:59:09;;;;;;;44.90;20.17;;;2.60;99.90;;;;;;5081430;28;20206;-60
2024/01/12 07:01:37;;;;;;;42.03;21.27;;;2.60;99.90;;;;;;5084144;28;20192;-61
2024/01/12 07:04:06;;;;;;;42.90;20.73;;;2.60;99.90;;;;;;5082290;28;20224;-60
2024/01/12 07:06:34;;;;;;;50.60;20.77;;;2.60;99.90;;;;;;5083341;28;20292;-60
2024/01/12 07:09:02;;;;;;;42.30;20.43;;;2.60;99.90;;;;;;5079827;28;20334;-60
2024/01/12 07:11:31;;;;;;;40.20;20.37;;;2.60;99.90;;;;;;5082566;28;20681;-60
2024/01/12 07:14:01;;;;;;;45.97;19.47;;;2.60;99.90;;;;;;5082211;28;20196;-60
2024/01/12 07:16:29;;;;;;;43.80;20.30;;;2.60;99.90;;;;;;5096879;28;20287;-60
2024/01/12 07:18:57;;;;;;;37.97;19.10;;;2.60;99.90;;;;;;5082313;28;20225;-61
2024/01/12 07:21:26;;;;;;;35.10;17.50;;;2.60;99.90;;;;;;5085252;28;20269;-60
2024/01/12 07:23:54;;;;;;;34.50;17.37;;;2.60;99.90;;;;;;5075500;28;20220;-60
2024/01/12 07:26:22;;;;;;;34.53;17.13;;;2.60;99.90;;;;;;5079151;28;20227;-60
2024/01/12 07:28:51;;;;;;;35.20;17.60;;;2.70;99.90;;;;;;5081618;28;20208;-61
2024/01/12 07:31:21;;;;;;;39.07;17.57;;;2.70;99.90;;;;;;5080789;28;20226;-60
2024/01/12 07:33:49;;;;;;;45.30;18.50;;;2.70;99.90;;;;;;5082032;28;20633;-60
2024/01/12 07:36:17;;;;;;;37.97;16.97;;;2.70;99.90;;;;;;5082033;28;20227;-61
2024/01/12 07:38:46;;;;;;;34.13;17.50;;;2.70;99.90;;;;;;5081410;28;20215;-60
2024/01/12 07:41:14;;;;;;;39.87;17.90;;;2.70;99.90;;;;;;5084514;28;20206;-61
2024/01/12 07:43:42;;;;;;;38.07;17.37;;;2.70;99.90;;;;;;5084645;28;20215;-60
2024/01/12 07:46:17;;;;;;;34.73;17.17;;;2.60;99.90;;;;;;5080564;28;20215;-61
2024/01/12 07:48:49;;;;;;;38.63;17.03;;;2.60;99.90;;;;;;5081356;27;20225;-60
2024/01/12 07:51:17;;;;;;;36.60;16.47;;;2.60;99.90;;;;;;5080091;28;20246;-61
2024/01/12 07:53:46;;;;;;;43.30;16.90;;;2.60;99.90;;;;;;5079521;28;20223;-61
2024/01/12 07:56:14;;;;;;;32.40;16.43;;;2.60;99.90;;;;;;5082845;28;20503;-61
2024/01/12 07:58:42;;;;;;;36.20;16.23;;;2.60;99.90;;;;;;5080464;28;20638;-61
2024/01/12 08:01:13;;;;;;;32.17;16.07;;;2.60;99.90;;;;;;5079191;28;20215;-61
2024/01/12 08:03:41;;;;;;;36.40;15.60;;;2.60;99.90;;;;;;5082482;28;20219;-60
2024/01/12 08:06:11;;;;;;;32.10;15.97;;;2.60;99.90;;;;;;5080079;28;20223;-60
2024/01/12 08:08:40;;;;;;;34.07;14.80;;;2.60;99.90;;;;;;5080301;28;20277;-61
2024/01/12 08:11:08;;;;;;;36.77;14.53;;;2.60;99.90;;;;;;5079875;28;20201;-60
2024/01/12 08:13:57;;;;;;;29.80;12.93;;;2.60;99.90;;;;;;5080237;28;20197;-61
2024/01/12 08:16:25;;;;;;;30.13;13.23;;;2.60;99.90;;;;;;4974220;28;20310;-61
2024/01/12 08:18:54;;;;;;;28.83;13.03;;;2.60;99.90;;;;;;4961366;28;20211;-60
2024/01/12 08:21:23;;;;;;;31.40;12.70;;;2.60;99.90;;;;;;5042305;28;20266;-61
2024/01/12 08:23:54;;;;;;;26.80;11.93;;;2.60;99.90;;;;;;5080809;28;20223;-61
2024/01/12 08:26:23;;;;;;;31.03;10.80;;;2.60;99.90;;;;;;5079486;28;20240;-60
2024/01/12 08:28:54;;;;;;;22.77;11.47;;;2.60;99.90;;;;;;5083729;28;20203;-61
2024/01/12 08:31:23;;;;;;;26.83;12.23;;;2.60;99.90;;;;;;5083529;28;20227;-60
2024/01/12 08:33:52;;;;;;;28.20;10.40;;;2.60;99.90;;;;;;5084209;27;20215;-60
2024/01/12 08:36:20;;;;;;;26.03;11.10;;;2.60;99.90;;;;;;5082213;28;20268;-60
2024/01/12 08:38:51;;;;;;;23.67;10.03;;;2.60;99.90;;;;;;5085044;28;20222;-61
2024/01/12 08:41:19;;;;;;;21.20;11.23;;;2.60;99.90;;;;;;5081412;28;20243;-61
2024/01/12 08:43:47;;;;;;;33.13;11.17;;;2.70;99.90;;;;;;5085791;28;20190;-60
2024/01/12 08:46:16;;;;;;;24.07;10.60;;;2.70;99.90;;;;;;5079419;28;20269;-61
2024/01/12 08:48:44;;;;;;;26.37;10.30;;;2.70;99.90;;;;;;5082225;28;20215;-61
2024/01/12 08:51:13;;;;;;;26.33;9.93;;;2.70;99.90;;;;;;5082945;28;20249;-61
2024/01/12 08:53:41;;;;;;;20.97;10.63;;;2.70;99.90;;;;;;5081506;28;20223;-61
2024/01/12 08:56:11;;;;;;;20.37;10.27;;;2.70;99.90;;;;;;5081800;28;20180;-61
2024/01/12 08:58:39;;;;;;;24.20;10.10;;;2.70;99.90;;;;;;5086795;28;20201;-61
2024/01/12 09:01:09;;;;;;;21.20;9.60;;;2.80;99.90;;;;;;5078401;28;20222;-60
2024/01/12 09:03:37;;;;;;;33.60;11.10;;;2.80;99.90;;;;;;5081646;28;20763;-61
2024/01/12 09:06:06;;;;;;;22.57;8.57;;;2.80;99.90;;;;;;5080998;28;20242;-61
2024/01/12 09:08:35;;;;;;;19.57;9.00;;;2.80;99.90;;;;;;5078686;28;20274;-61
2024/01/12 09:11:03;;;;;;;30.83;8.73;;;2.90;99.90;;;;;;5083091;28;20184;-61
2024/01/12 09:13:33;;;;;;;18.87;8.47;;;2.90;99.90;;;;;;5079600;28;20203;-61
2024/01/12 09:16:02;;;;;;;28.60;9.20;;;3.00;99.90;;;;;;5080848;28;21148;-61
2024/01/12 09:18:30;;;;;;;25.27;9.97;;;3.00;99.90;;;;;;5083568;28;20469;-61
2024/01/12 09:20:59;;;;;;;26.87;9.40;;;3.00;99.90;;;;;;5082197;28;20227;-60
2024/01/12 09:23:27;;;;;;;25.53;10.00;;;3.10;99.90;;;;;;5081157;28;20247;-60
2024/01/12 09:25:56;;;;;;;24.83;9.30;;;3.10;99.90;;;;;;5084496;28;20207;-60
2024/01/12 09:28:24;;;;;;;27.13;9.87;;;3.10;99.90;;;;;;5086154;28;20273;-60
2024/01/12 09:30:54;;;;;;;21.97;10.20;;;3.10;99.90;;;;;;5084606;28;20223;-60
2024/01/12 09:33:22;;;;;;;22.33;10.20;;;3.10;99.90;;;;;;5084925;27;20219;-60
2024/01/12 09:35:51;;;;;;;15.63;8.80;;;3.20;99.90;;;;;;5084337;28;20220;-60
2024/01/12 09:38:19;;;;;;;25.00;10.00;;;3.30;99.90;;;;;;5085960;28;20227;-60
2024/01/12 09:40:48;;;;;;;18.73;10.43;;;3.30;99.90;;;;;;5088458;28;20204;-60
2024/01/12 09:43:17;;;;;;;22.00;11.00;;;3.30;99.90;;;;;;5084215;28;20227;-60
2024/01/12 09:45:46;;;;;;;27.23;11.27;;;3.40;99.90;;;;;;5084039;28;20223;-60
2024/01/12 09:48:16;;;;;;;22.87;10.37;;;3.40;99.90;;;;;;5077527;28;20701;-60
2024/01/12 09:50:47;;;;;;;20.03;9.83;;;3.50;99.90;;;;;;5082460;28;20237;-61
2024/01/12 09:53:19;;;;;;;24.13;9.83;;;3.50;99.90;;;;;;5081550;28;20202;-60
2024/01/12 09:55:47;;;;;;;18.57;8.57;;;3.60;99.90;;;;;;5083845;28;20184;-60
2024/01/12 09:58:17;;;;;;;18.77;9.23;;;3.70;99.90;;;;;;5085296;28;20325;-60
2024/01/12 10:00:48;;;;;;;25.50;9.50;;;3.80;99.90;;;;;;5084893;28;20234;-61
2024/01/12 10:03:20;;;;;;;19.20;8.37;;;3.80;99.90;;;;;;5088673;28;20226;-60
2024/01/12 10:05:48;;;;;;;18.90;9.17;;;3.90;99.90;;;;;;5082690;28;20232;-61
2024/01/12 10:08:16;;;;;;;23.73;9.43;;;4.00;99.90;;;;;;5080375;28;20235;-61
2024/01/12 10:10:45;;;;;;;20.20;10.17;;;4.00;99.90;;;;;;5086087;28;20180;-60
2024/01/12 10:13:15;;;;;;;17.63;9.20;;;4.10;99.90;;;;;;5084996;28;20212;-60
2024/01/12 10:15:43;;;;;;;17.23;9.10;;;4.10;99.90;;;;;;5084853;28;20219;-61
2024/01/12 10:18:11;;;;;;;19.67;8.50;;;4.20;99.90;;;;;;5082883;28;20212;-61
2024/01/12 10:20:41;;;;;;;17.63;8.40;;;4.20;99.90;;;;;;5080049;28;20215;-60
2024/01/12 10:23:10;;;;;;;18.27;8.67;;;4.20;99.90;;;;;;5083552;28;20256;-60
2024/01/12 10:25:38;;;;;;;16.30;8.77;;;4.30;99.90;;;;;;5085104;28;20192;-61
2024/01/12 10:28:06;;;;;;;19.70;8.73;;;4.40;99.90;;;;;;5089190;28;20229;-61
2024/01/12 10:30:35;;;;;;;31.73;8.83;;;4.40;99.90;;;;;;5085238;28;20231;-60
2024/01/12 10:33:04;;;;;;;21.73;8.40;;;4.30;99.90;;;;;;5086348;28;20302;-61
2024/01/12 10:35:33;;;;;;;21.30;8.03;;;4.30;99.90;;;;;;5084559;28;20223;-60
2024/01/12 10:38:05;;;;;;;21.90;8.13;;;4.20;99.90;;;;;;5081684;28;20749;-61
2024/01/12 10:40:34;;;;;;;16.67;8.40;;;4.30;99.90;;;;;;5081461;28;20539;-61
2024/01/12 10:43:05;;;;;;;26.40;8.90;;;4.30;99.90;;;;;;5083592;28;20296;-61
2024/01/12 10:45:34;;;;;;;23.73;8.40;;;4.40;99.90;;;;;;5083991;28;20277;-61
2024/01/12 10:48:10;;;;;;;19.60;8.37;;;4.40;99.90;;;;;;5082937;28;20238;-60
2024/01/12 10:50:43;;;;;;;21.77;8.23;;;4.50;99.90;;;;;;5084827;28;20224;-61
2024/01/12 10:53:21;;;;;;;19.27;8.10;;;4.50;99.90;;;;;;5081990;28;20237;-60
2024/01/12 10:55:56;;;;;;;20.60;8.43;;;4.60;99.90;;;;;;5082671;28;20199;-61
2024/01/12 10:58:24;;;;;;;26.67;8.27;;;4.60;99.90;;;;;;5085858;28;20302;-60
2024/01/12 11:00:53;;;;;;;13.63;8.53;;;4.60;99.90;;;;;;5084787;28;20294;-61
2024/01/12 11:03:23;;;;;;;15.43;8.07;;;4.60;99.90;;;;;;5085158;28;20226;-61
2024/01/12 11:05:52;;;;;;;19.43;8.17;;;4.60;99.90;;;;;;5085624;28;20276;-60
2024/01/12 11:08:27;;;;;;;22.17;7.70;;;4.70;99.90;;;;;;5084277;28;20228;-61
2024/01/12 11:10:58;;;;;;;22.00;8.23;;;4.70;99.90;;;;;;5082904;28;20279;-61
2024/01/12 11:13:26;;;;;;;27.57;8.47;;;4.70;99.90;;;;;;5085663;28;20226;-61
2024/01/12 11:15:55;;;;;;;28.87;8.80;;;4.70;99.90;;;;;;5084213;28;20302;-61
2024/01/12 11:18:25;;;;;;;18.40;7.67;;;4.80;99.90;;;;;;5085957;28;20224;-61
2024/01/12 11:21:01;;;;;;;22.77;8.27;;;4.70;99.90;;;;;;5083626;28;20223;-60
2024/01/12 11:23:38;;;;;;;26.27;8.97;;;4.70;99.90;;;;;;5083207;28;20230;-60
2024/01/12 11:26:06;;;;;;;20.27;8.27;;;4.80;99.90;;;;;;5083196;28;20240;-61
2024/01/12 11:28:38;;;;;;;25.60;8.60;;;4.80;99.90;;;;;;5086259;28;20279;-61
2024/01/12 11:31:07;;;;;;;23.80;8.90;;;4.90;99.90;;;;;;5083451;28;20212;-60
2024/01/12 11:33:42;;;;;;;20.23;8.73;;;5.00;99.90;;;;;;5084189;28;20219;-60
2024/01/12 11:36:17;;;;;;;25.67;8.93;;;5.00;99.90;;;;;;5081554;28;20690;-61
2024/01/12 11:38:48;;;;;;;23.27;8.93;;;5.00;99.90;;;;;;5080528;28;20277;-60
2024/01/12 11:41:17;;;;;;;28.20;9.80;;;4.90;99.90;;;;;;5080545;28;20210;-61
2024/01/12 11:43:48;;;;;;;23.60;8.93;;;5.00;99.90;;;;;;5079050;28;20195;-60
2024/01/12 11:46:17;;;;;;;23.40;8.63;;;5.00;99.90;;;;;;5083237;28;20215;-61
2024/01/12 11:48:47;;;;;;;19.50;9.37;;;5.00;99.90;;;;;;5082459;28;20223;-60
2024/01/12 11:51:21;;;;;;;22.90;8.93;;;5.00;99.90;;;;;;5082967;28;20316;-60
2024/01/12 11:53:53;;;;;;;21.57;9.03;;;5.10;99.90;;;;;;5081339;27;20669;-60
2024/01/12 11:56:22;;;;;;;28.80;9.97;;;5.20;99.90;;;;;;5080690;28;20555;-61
2024/01/12 11:58:51;;;;;;;24.37;10.00;;;5.20;99.90;;;;;;5084162;28;20196;-61
2024/01/12 12:01:20;;;;;;;34.60;10.50;;;5.30;99.90;;;;;;5083986;28;20215;-60
2024/01/12 12:03:49;;;;;;;14.23;8.60;;;5.20;99.90;;;;;;5077907;28;20224;-60
2024/01/12 12:06:17;;;;;;;20.50;9.03;;;5.20;99.90;;;;;;5082394;28;20219;-61
2024/01/12 12:08:46;;;;;;;22.90;9.40;;;5.30;99.90;;;;;;5081885;28;20593;-61
2024/01/12 12:11:16;;;;;;;19.47;8.87;;;5.30;99.90;;;;;;5081157;28;20211;-61
2024/01/12 12:13:44;;;;;;;22.43;9.40;;;5.20;99.90;;;;;;5082741;28;20196;-61
2024/01/12 12:16:12;;;;;;;22.07;9.30;;;5.20;99.90;;;;;;5083421;28;20213;-61
2024/01/12 12:18:42;;;;;;;28.93;9.43;;;5.20;99.90;;;;;;5077642;27;20577;-61
2024/01/12 12:21:12;;;;;;;18.83;8.30;;;5.10;99.90;;;;;;5080863;28;20606;-61
2024/01/12 12:23:41;;;;;;;17.43;9.40;;;5.10;99.90;;;;;;5083908;28;20720;-61
2024/01/12 12:26:11;;;;;;;27.13;10.70;;;5.10;99.90;;;;;;5083287;28;20188;-61
2024/01/12 12:28:41;;;;;;;22.07;9.67;;;5.00;99.90;;;;;;5081903;28;20195;-61
2024/01/12 12:31:10;;;;;;;36.70;12.17;;;4.90;99.90;;;;;;5083109;28;20233;-61
2024/01/12 12:33:44;;;;;;;28.30;9.53;;;4.90;99.90;;;;;;5081683;28;20510;-61
2024/01/12 12:36:15;;;;;;;23.17;9.33;;;4.90;99.90;;;;;;5081561;28;20326;-61
2024/01/12 12:38:44;;;;;;;22.10;8.97;;;5.00;99.90;;;;;;5083396;28;20314;-61
2024/01/12 12:41:13;;;;;;;22.73;10.03;;;5.00;99.90;;;;;;5076492;28;20192;-61
2024/01/12 12:43:44;;;;;;;24.13;9.93;;;5.00;99.90;;;;;;5083897;28;20740;-61
2024/01/12 12:46:13;;;;;;;18.17;9.70;;;5.00;99.90;;;;;;5081436;28;20247;-62
2024/01/12 12:48:41;;;;;;;24.37;9.10;;;5.00;99.90;;;;;;5081125;27;20223;-61